sensor_id;sensor_type;location;lat;lon;timestamp;pressure;altitude;pressure_sealevel;temperature;humidity
9439;BME280;5176;42.622;25.386;2023-05-16T00:01:49;97093.00;;;15.83;100.00
9439;BME280;5176;42.622;25.386;2023-05-16T00:04:16;97084.00;;;15.86;100.00
9439;BME280;5176;42.622;25.386;2023-05-16T00:06:45;97080.09;;;15.90;100.00
9439;BME280;5176;42.622;25.386;2023-05-16T00:09:12;97068.97;;;15.86;100.00
9439;BME280;5176;42.622;25.386;2023-05-16T00:11:40;97086.66;;;15.95;100.00
9439;BME280;5176;42.622;25.386;2023-05-16T00:14:07;97079.84;;;15.93;100.00
9439;BME280;5176;42.622;25.386;2023-05-16T00:16:35;97078.84;;;15.94;100.00
9439;BME280;5176;42.622;25.386;2023-05-16T00:19:04;97076.06;;;15.95;100.00
9439;BME280;5176;42.622;25.386;2023-05-16T00:21:31;97047.06;;;15.74;100.00
9439;BME280;5176;42.622;25.386;2023-05-16T00:23:58;97073.72;;;15.92;100.00
9439;BME280;5176;42.622;25.386;2023-05-16T00:26:26;97078.56;;;15.97;100.00
9439;BME280;5176;42.622;25.386;2023-05-16T00:28:53;97081.78;;;16.00;100.00
9439;BME280;5176;42.622;25.386;2023-05-16T00:31:21;97073.03;;;16.00;100.00
9439;BME280;5176;42.622;25.386;2023-05-16T00:33:48;97075.09;;;15.87;100.00
9439;BME280;5176;42.622;25.386;2023-05-16T00:36:17;97077.69;;;15.77;100.00
9439;BME280;5176;42.622;25.386;2023-05-16T00:38:44;97073.50;;;15.74;100.00
9439;BME280;5176;42.622;25.386;2023-05-16T00:41:12;97075.75;;;15.79;100.00
9439;BME280;5176;42.622;25.386;2023-05-16T00:43:39;97076.44;;;15.81;100.00
9439;BME280;5176;42.622;25.386;2023-05-16T00:46:07;97073.53;;;15.84;100.00
9439;BME280;5176;42.622;25.386;2023-05-16T00:48:34;97078.41;;;15.79;100.00
9439;BME280;5176;42.622;25.386;2023-05-16T00:51:02;97090.06;;;15.76;100.00
9439;BME280;5176;42.622;25.386;2023-05-16T00:53:35;97080.75;;;15.72;100.00
9439;BME280;5176;42.622;25.386;2023-05-16T00:56:04;97074.63;;;15.72;100.00
9439;BME280;5176;42.622;25.386;2023-05-16T00:58:33;97090.34;;;15.73;100.00
9439;BME280;5176;42.622;25.386;2023-05-16T01:01:00;97090.34;;;15.73;100.00
9439;BME280;5176;42.622;25.386;2023-05-16T01:03:29;97092.97;;;15.73;100.00
9439;BME280;5176;42.622;25.386;2023-05-16T01:05:57;97088.38;;;15.75;100.00
9439;BME280;5176;42.622;25.386;2023-05-16T01:08:25;97081.97;;;15.68;100.00
9439;BME280;5176;42.622;25.386;2023-05-16T01:10:59;97073.00;;;15.60;100.00
9439;BME280;5176;42.622;25.386;2023-05-16T01:13:35;97066.63;;;15.62;100.00
9439;BME280;5176;42.622;25.386;2023-05-16T01:16:06;97070.06;;;15.53;100.00
9439;BME280;5176;42.622;25.386;2023-05-16T01:18:41;97074.72;;;15.40;100.00
9439;BME280;5176;42.622;25.386;2023-05-16T01:21:15;97071.94;;;15.41;100.00
9439;BME280;5176;42.622;25.386;2023-05-16T01:23:51;97070.00;;;15.43;100.00
9439;BME280;5176;42.622;25.386;2023-05-16T01:26:25;97082.28;;;15.54;100.00
9439;BME280;5176;42.622;25.386;2023-05-16T01:28:53;97087.28;;;15.57;100.00
9439;BME280;5176;42.622;25.386;2023-05-16T01:31:21;97080.50;;;15.54;100.00
9439;BME280;5176;42.622;25.386;2023-05-16T01:33:49;97066.81;;;15.40;100.00
9439;BME280;5176;42.622;25.386;2023-05-16T01:36:23;97063.72;;;15.35;100.00
9439;BME280;5176;42.622;25.386;2023-05-16T01:39:00;97051.06;;;15.08;100.00
9439;BME280;5176;42.622;25.386;2023-05-16T01:41:37;97053.97;;;15.05;100.00
9439;BME280;5176;42.622;25.386;2023-05-16T01:44:12;97051.34;;;15.05;100.00
9439;BME280;5176;42.622;25.386;2023-05-16T01:46:44;97048.81;;;15.03;100.00
9439;BME280;5176;42.622;25.386;2023-05-16T01:49:15;97051.44;;;15.03;100.00
9439;BME280;5176;42.622;25.386;2023-05-16T01:51:52;97047.31;;;15.10;100.00
9439;BME280;5176;42.622;25.386;2023-05-16T01:54:20;97033.72;;;15.15;100.00
9439;BME280;5176;42.622;25.386;2023-05-16T01:56:53;97028.16;;;15.18;100.00
9439;BME280;5176;42.622;25.386;2023-05-16T01:59:23;97030.56;;;15.21;100.00
9439;BME280;5176;42.622;25.386;2023-05-16T02:01:52;97029.22;;;15.26;100.00
9439;BME280;5176;42.622;25.386;2023-05-16T02:04:20;97032.69;;;15.27;100.00
9439;BME280;5176;42.622;25.386;2023-05-16T02:06:49;97026.88;;;15.33;100.00
9439;BME280;5176;42.622;25.386;2023-05-16T02:09:16;97022.03;;;15.38;100.00
9439;BME280;5176;42.622;25.386;2023-05-16T02:11:44;97019.41;;;15.38;100.00
9439;BME280;5176;42.622;25.386;2023-05-16T02:14:13;97019.41;;;15.38;100.00
9439;BME280;5176;42.622;25.386;2023-05-16T02:16:40;97020.66;;;15.44;100.00
9439;BME280;5176;42.622;25.386;2023-05-16T02:19:07;97027.34;;;15.48;100.00
9439;BME280;5176;42.622;25.386;2023-05-16T02:21:35;97022.66;;;15.51;100.00
9439;BME280;5176;42.622;25.386;2023-05-16T02:24:03;97016.38;;;15.52;100.00
9439;BME280;5176;42.622;25.386;2023-05-16T02:26:31;97020.13;;;15.50;100.00
9439;BME280;5176;42.622;25.386;2023-05-16T02:28:58;97006.53;;;15.54;100.00
9439;BME280;5176;42.622;25.386;2023-05-16T02:31:28;97004.84;;;15.53;100.00
9439;BME280;5176;42.622;25.386;2023-05-16T02:33:56;97004.03;;;15.53;100.00
9439;BME280;5176;42.622;25.386;2023-05-16T02:36:24;97003.19;;;15.52;100.00
9439;BME280;5176;42.622;25.386;2023-05-16T02:38:52;97006.81;;;15.51;100.00
9439;BME280;5176;42.622;25.386;2023-05-16T02:41:19;97004.16;;;15.51;100.00
9439;BME280;5176;42.622;25.386;2023-05-16T02:43:47;97007.88;;;15.49;100.00
9439;BME280;5176;42.622;25.386;2023-05-16T02:46:22;96999.94;;;15.39;100.00
9439;BME280;5176;42.622;25.386;2023-05-16T02:48:51;97001.56;;;15.31;100.00
9439;BME280;5176;42.622;25.386;2023-05-16T02:51:20;96993.53;;;15.32;100.00
9439;BME280;5176;42.622;25.386;2023-05-16T02:53:48;96995.56;;;15.29;100.00
9439;BME280;5176;42.622;25.386;2023-05-16T02:56:15;96992.78;;;15.30;100.00
9439;BME280;5176;42.622;25.386;2023-05-16T02:58:45;96983.91;;;15.31;100.00
9439;BME280;5176;42.622;25.386;2023-05-16T03:01:13;96983.91;;;15.31;100.00
9439;BME280;5176;42.622;25.386;2023-05-16T03:03:40;96986.28;;;15.34;100.00
9439;BME280;5176;42.622;25.386;2023-05-16T03:06:09;96987.25;;;15.33;100.00
9439;BME280;5176;42.622;25.386;2023-05-16T03:08:37;96992.41;;;15.35;100.00
9439;BME280;5176;42.622;25.386;2023-05-16T03:11:04;96994.34;;;15.33;100.00
9439;BME280;5176;42.622;25.386;2023-05-16T03:13:32;96995.75;;;15.37;100.00
9439;BME280;5176;42.622;25.386;2023-05-16T03:15:59;96999.50;;;15.34;100.00
9439;BME280;5176;42.622;25.386;2023-05-16T03:18:27;96994.06;;;15.36;100.00
9439;BME280;5176;42.622;25.386;2023-05-16T03:20:55;96991.44;;;15.36;100.00
9439;BME280;5176;42.622;25.386;2023-05-16T03:23:26;96993.53;;;15.32;100.00
9439;BME280;5176;42.622;25.386;2023-05-16T03:25:53;97003.25;;;15.32;100.00
9439;BME280;5176;42.622;25.386;2023-05-16T03:28:21;96999.75;;;15.31;100.00
9439;BME280;5176;42.622;25.386;2023-05-16T03:30:48;96990.88;;;15.32;100.00
9439;BME280;5176;42.622;25.386;2023-05-16T03:33:15;96988.88;;;15.24;100.00
9439;BME280;5176;42.622;25.386;2023-05-16T03:35:43;97008.78;;;15.29;100.00
9439;BME280;5176;42.622;25.386;2023-05-16T03:38:12;97010.06;;;15.34;100.00
9439;BME280;5176;42.622;25.386;2023-05-16T03:40:41;96995.88;;;15.35;100.00
9439;BME280;5176;42.622;25.386;2023-05-16T03:43:08;96995.34;;;15.41;100.00
9439;BME280;5176;42.622;25.386;2023-05-16T03:45:35;96994.06;;;15.36;100.00
9439;BME280;5176;42.622;25.386;2023-05-16T03:48:03;96986.28;;;15.34;100.00
9439;BME280;5176;42.622;25.386;2023-05-16T03:50:30;97000.47;;;15.33;100.00
9439;BME280;5176;42.622;25.386;2023-05-16T03:52:58;96957.44;;;15.12;100.00
9439;BME280;5176;42.622;25.386;2023-05-16T03:55:25;96999.50;;;15.34;100.00
9439;BME280;5176;42.622;25.386;2023-05-16T03:57:53;97005.91;;;15.32;100.00
9439;BME280;5176;42.622;25.386;2023-05-16T04:00:20;97009.91;;;15.36;100.00
9439;BME280;5176;42.622;25.386;2023-05-16T04:02:48;97001.59;;;15.40;100.00
9439;BME280;5176;42.622;25.386;2023-05-16T04:05:15;96999.50;;;15.44;100.00
9439;BME280;5176;42.622;25.386;2023-05-16T04:07:42;96992.03;;;15.49;100.00
9439;BME280;5176;42.622;25.386;2023-05-16T04:10:10;97000.25;;;15.46;100.00
9439;BME280;5176;42.622;25.386;2023-05-16T04:12:38;97003.56;;;15.48;100.00
9439;BME280;5176;42.622;25.386;2023-05-16T04:15:07;97010.13;;;15.53;100.00
9439;BME280;5176;42.622;25.386;2023-05-16T04:17:35;97020.84;;;15.52;100.00
9439;BME280;5176;42.622;25.386;2023-05-16T04:20:02;97018.19;;;15.52;100.00
9439;BME280;5176;42.622;25.386;2023-05-16T04:22:31;97022.22;;;15.46;100.00
9439;BME280;5176;42.622;25.386;2023-05-16T04:24:59;97019.56;;;15.46;100.00
9439;BME280;5176;42.622;25.386;2023-05-16T04:27:26;97019.81;;;15.43;100.00
9439;BME280;5176;42.622;25.386;2023-05-16T04:29:53;97026.22;;;15.41;100.00
9439;BME280;5176;42.622;25.386;2023-05-16T04:32:22;97030.06;;;15.37;100.00
9439;BME280;5176;42.622;25.386;2023-05-16T04:34:49;97035.50;;;15.35;100.00
9439;BME280;5176;42.622;25.386;2023-05-16T04:37:18;97035.09;;;15.40;100.00
9439;BME280;5176;42.622;25.386;2023-05-16T04:39:47;97038.00;;;15.37;100.00
9439;BME280;5176;42.622;25.386;2023-05-16T04:42:14;97032.84;;;15.35;100.00
9439;BME280;5176;42.622;25.386;2023-05-16T04:44:41;97029.53;;;15.33;100.00
9439;BME280;5176;42.622;25.386;2023-05-16T04:47:09;97021.00;;;15.30;100.00
9439;BME280;5176;42.622;25.386;2023-05-16T04:49:38;97008.22;;;15.25;100.00
9439;BME280;5176;42.622;25.386;2023-05-16T04:52:05;97007.63;;;15.21;100.00
9439;BME280;5176;42.622;25.386;2023-05-16T04:54:34;96993.75;;;15.19;100.00
9439;BME280;5176;42.622;25.386;2023-05-16T04:57:01;96987.78;;;15.27;100.00
9439;BME280;5176;42.622;25.386;2023-05-16T04:59:28;96999.88;;;15.30;100.00
9439;BME280;5176;42.622;25.386;2023-05-16T05:01:56;97011.19;;;15.32;100.00
9439;BME280;5176;42.622;25.386;2023-05-16T05:04:23;97005.22;;;15.39;100.00
9439;BME280;5176;42.622;25.386;2023-05-16T05:06:52;96995.50;;;15.49;100.00
9439;BME280;5176;42.622;25.386;2023-05-16T05:09:19;96990.59;;;15.66;100.00
9439;BME280;5176;42.622;25.386;2023-05-16T05:11:46;97000.94;;;15.78;100.00
9439;BME280;5176;42.622;25.386;2023-05-16T05:14:14;97009.69;;;15.89;100.00
9439;BME280;5176;42.622;25.386;2023-05-16T05:16:41;97011.38;;;15.99;100.00
9439;BME280;5176;42.622;25.386;2023-05-16T05:19:08;97007.66;;;16.12;100.00
9439;BME280;5176;42.622;25.386;2023-05-16T05:21:35;97002.63;;;16.18;100.00
9439;BME280;5176;42.622;25.386;2023-05-16T05:24:05;97001.81;;;16.27;100.00
9439;BME280;5176;42.622;25.386;2023-05-16T05:26:32;96996.78;;;16.24;100.00
9439;BME280;5176;42.622;25.386;2023-05-16T05:28:59;96992.91;;;16.19;100.00
9439;BME280;5176;42.622;25.386;2023-05-16T05:31:27;97000.13;;;16.17;100.00
9439;BME280;5176;42.622;25.386;2023-05-16T05:33:54;96999.56;;;16.13;100.00
9439;BME280;5176;42.622;25.386;2023-05-16T05:36:21;97005.28;;;16.28;100.00
9439;BME280;5176;42.622;25.386;2023-05-16T05:38:49;96999.88;;;16.39;100.00
9439;BME280;5176;42.622;25.386;2023-05-16T05:41:17;97013.06;;;16.49;100.00
9439;BME280;5176;42.622;25.386;2023-05-16T05:43:46;97006.13;;;16.48;100.00
9439;BME280;5176;42.622;25.386;2023-05-16T05:46:13;97004.31;;;16.39;100.00
9439;BME280;5176;42.622;25.386;2023-05-16T05:48:41;97006.28;;;16.46;100.00
9439;BME280;5176;42.622;25.386;2023-05-16T05:51:09;97003.03;;;16.62;100.00
9439;BME280;5176;42.622;25.386;2023-05-16T05:53:39;97011.41;;;16.67;100.00
9439;BME280;5176;42.622;25.386;2023-05-16T05:56:06;97011.25;;;16.78;100.00
9439;BME280;5176;42.622;25.386;2023-05-16T05:58:35;97012.66;;;16.92;100.00
9439;BME280;5176;42.622;25.386;2023-05-16T06:01:02;97016.78;;;17.04;100.00
9439;BME280;5176;42.622;25.386;2023-05-16T06:03:30;97014.13;;;17.14;100.00
9439;BME280;5176;42.622;25.386;2023-05-16T06:05:57;97013.94;;;17.25;100.00
9439;BME280;5176;42.622;25.386;2023-05-16T06:08:25;97016.13;;;17.39;100.00
9439;BME280;5176;42.622;25.386;2023-05-16T06:10:52;97022.50;;;17.47;99.76
9439;BME280;5176;42.622;25.386;2023-05-16T06:13:20;97010.38;;;17.44;96.07
9439;BME280;5176;42.622;25.386;2023-05-16T06:15:50;97007.28;;;17.49;95.31
9439;BME280;5176;42.622;25.386;2023-05-16T06:18:18;97008.09;;;17.59;94.50
9439;BME280;5176;42.622;25.386;2023-05-16T06:20:45;97012.34;;;17.69;96.68
9439;BME280;5176;42.622;25.386;2023-05-16T06:23:12;97011.44;;;17.88;97.19
9439;BME280;5176;42.622;25.386;2023-05-16T06:25:40;97014.81;;;18.08;96.61
9439;BME280;5176;42.622;25.386;2023-05-16T06:28:07;97015.28;;;18.21;93.70
9439;BME280;5176;42.622;25.386;2023-05-16T06:30:35;97008.00;;;18.23;91.05
9439;BME280;5176;42.622;25.386;2023-05-16T06:33:04;97009.88;;;18.31;89.95
9439;BME280;5176;42.622;25.386;2023-05-16T06:35:31;97001.47;;;18.36;85.64
9439;BME280;5176;42.622;25.386;2023-05-16T06:37:58;97010.34;;;18.44;82.88
9439;BME280;5176;42.622;25.386;2023-05-16T06:40:25;97009.97;;;18.39;82.20
9439;BME280;5176;42.622;25.386;2023-05-16T06:42:53;97002.31;;;18.36;84.25
9439;BME280;5176;42.622;25.386;2023-05-16T06:45:23;96996.72;;;18.39;84.72
9439;BME280;5176;42.622;25.386;2023-05-16T06:47:50;96990.41;;;18.40;84.81
9439;BME280;5176;42.622;25.386;2023-05-16T06:50:19;96989.59;;;18.40;87.12
9439;BME280;5176;42.622;25.386;2023-05-16T06:52:46;96984.56;;;18.55;87.28
9439;BME280;5176;42.622;25.386;2023-05-16T06:55:13;96995.91;;;18.65;86.47
9439;BME280;5176;42.622;25.386;2023-05-16T06:57:41;96987.75;;;18.76;84.31
9439;BME280;5176;42.622;25.386;2023-05-16T07:00:09;96987.78;;;18.84;83.77
9439;BME280;5176;42.622;25.386;2023-05-16T07:02:37;96980.19;;;18.89;83.90
9439;BME280;5176;42.622;25.386;2023-05-16T07:05:05;96970.81;;;19.03;83.99
9439;BME280;5176;42.622;25.386;2023-05-16T07:07:35;96972.88;;;19.17;81.40
9439;BME280;5176;42.622;25.386;2023-05-16T07:10:02;96971.06;;;19.18;80.63
9439;BME280;5176;42.622;25.386;2023-05-16T07:12:29;96977.47;;;19.33;82.05
9439;BME280;5176;42.622;25.386;2023-05-16T07:14:57;96982.03;;;19.49;82.06
9439;BME280;5176;42.622;25.386;2023-05-16T07:17:24;96979.88;;;19.52;80.03
9439;BME280;5176;42.622;25.386;2023-05-16T07:19:52;96982.75;;;19.59;76.82
9439;BME280;5176;42.622;25.386;2023-05-16T07:22:19;96976.59;;;19.58;79.23
9439;BME280;5176;42.622;25.386;2023-05-16T07:24:48;96981.91;;;19.58;77.98
9439;BME280;5176;42.622;25.386;2023-05-16T07:27:17;96985.28;;;19.61;78.37
9439;BME280;5176;42.622;25.386;2023-05-16T07:29:45;96983.59;;;19.59;76.50
9439;BME280;5176;42.622;25.386;2023-05-16T07:32:12;96962.84;;;19.63;78.19
9439;BME280;5176;42.622;25.386;2023-05-16T07:34:39;96967.34;;;19.71;78.35
9439;BME280;5176;42.622;25.386;2023-05-16T07:37:07;96964.38;;;19.74;76.72
9439;BME280;5176;42.622;25.386;2023-05-16T07:39:37;96960.91;;;19.81;78.18
9439;BME280;5176;42.622;25.386;2023-05-16T07:42:07;96963.56;;;19.90;77.26
9439;BME280;5176;42.622;25.386;2023-05-16T07:44:35;96960.75;;;19.99;75.22
9439;BME280;5176;42.622;25.386;2023-05-16T07:47:02;96947.31;;;20.09;75.40
9439;BME280;5176;42.622;25.386;2023-05-16T07:49:29;96967.63;;;20.18;75.38
9439;BME280;5176;42.622;25.386;2023-05-16T07:51:56;96961.63;;;20.16;76.40
9439;BME280;5176;42.622;25.386;2023-05-16T07:54:24;96952.34;;;20.28;75.52
9439;BME280;5176;42.622;25.386;2023-05-16T07:56:51;96946.34;;;20.42;75.21
9439;BME280;5176;42.622;25.386;2023-05-16T07:59:20;96934.06;;;20.58;70.68
9439;BME280;5176;42.622;25.386;2023-05-16T08:01:47;96933.06;;;20.67;68.69
9439;BME280;5176;42.622;25.386;2023-05-16T08:04:15;96960.66;;;20.66;67.90
9439;BME280;5176;42.622;25.386;2023-05-16T08:06:42;96951.34;;;20.70;70.94
9439;BME280;5176;42.622;25.386;2023-05-16T08:09:10;96953.34;;;20.84;70.02
9439;BME280;5176;42.622;25.386;2023-05-16T08:11:37;96934.66;;;20.92;68.03
9439;BME280;5176;42.622;25.386;2023-05-16T08:14:05;96912.81;;;21.05;68.24
9439;BME280;5176;42.622;25.386;2023-05-16T08:16:34;96934.81;;;21.07;65.82
9439;BME280;5176;42.622;25.386;2023-05-16T08:19:01;96933.59;;;21.18;65.34
9439;BME280;5176;42.622;25.386;2023-05-16T08:21:29;96944.75;;;21.21;64.86
9439;BME280;5176;42.622;25.386;2023-05-16T08:23:56;96946.75;;;21.28;65.23
9439;BME280;5176;42.622;25.386;2023-05-16T08:26:24;96937.41;;;21.32;63.49
9439;BME280;5176;42.622;25.386;2023-05-16T08:28:51;96944.59;;;21.31;61.99
9439;BME280;5176;42.622;25.386;2023-05-16T08:31:19;96939.06;;;21.41;64.49
9439;BME280;5176;42.622;25.386;2023-05-16T08:33:48;96926.94;;;21.22;61.75
9439;BME280;5176;42.622;25.386;2023-05-16T08:36:15;96936.41;;;21.33;61.10
9439;BME280;5176;42.622;25.386;2023-05-16T08:38:44;96926.72;;;21.40;62.07
9439;BME280;5176;42.622;25.386;2023-05-16T08:41:12;96923.16;;;21.56;62.42
9439;BME280;5176;42.622;25.386;2023-05-16T08:43:39;96940.50;;;21.52;61.07
9439;BME280;5176;42.622;25.386;2023-05-16T08:46:06;96945.09;;;21.74;59.73
9439;BME280;5176;42.622;25.386;2023-05-16T08:48:35;96931.19;;;21.79;59.35
9439;BME280;5176;42.622;25.386;2023-05-16T08:51:07;96942.50;;;21.89;60.11
9439;BME280;5176;42.622;25.386;2023-05-16T08:53:38;96944.97;;;21.90;57.80
9439;BME280;5176;42.622;25.386;2023-05-16T08:56:08;96940.41;;;21.99;58.70
9439;BME280;5176;42.622;25.386;2023-05-16T08:58:37;96933.09;;;22.01;60.29
9439;BME280;5176;42.622;25.386;2023-05-16T09:01:05;96936.38;;;22.11;56.32
9439;BME280;5176;42.622;25.386;2023-05-16T09:03:34;96925.28;;;22.22;54.56
9439;BME280;5176;42.622;25.386;2023-05-16T09:06:04;96917.63;;;22.42;53.93
9439;BME280;5176;42.622;25.386;2023-05-16T09:08:33;96926.69;;;22.56;59.52
9439;BME280;5176;42.622;25.386;2023-05-16T09:11:00;96925.59;;;22.65;60.54
9439;BME280;5176;42.622;25.386;2023-05-16T09:13:28;96918.56;;;22.49;59.08
9439;BME280;5176;42.622;25.386;2023-05-16T09:16:08;96922.50;;;22.53;60.99
9439;BME280;5176;42.622;25.386;2023-05-16T09:18:35;96920.53;;;22.70;59.79
9439;BME280;5176;42.622;25.386;2023-05-16T09:21:03;96918.44;;;22.80;58.45
9439;BME280;5176;42.622;25.386;2023-05-16T09:23:33;96925.84;;;22.93;60.03
9439;BME280;5176;42.622;25.386;2023-05-16T09:26:01;96916.66;;;22.96;58.19
9439;BME280;5176;42.622;25.386;2023-05-16T09:28:30;96921.91;;;23.04;57.47
9439;BME280;5176;42.622;25.386;2023-05-16T09:30:57;96921.63;;;23.28;56.29
9439;BME280;5176;42.622;25.386;2023-05-16T09:33:26;96930.75;;;23.49;53.06
9439;BME280;5176;42.622;25.386;2023-05-16T09:35:56;96944.84;;;23.72;55.02
9439;BME280;5176;42.622;25.386;2023-05-16T09:38:25;96946.59;;;23.80;57.05
9439;BME280;5176;42.622;25.386;2023-05-16T09:40:54;96921.59;;;23.73;53.97
9439;BME280;5176;42.622;25.386;2023-05-16T09:43:25;96934.09;;;23.87;49.56
9439;BME280;5176;42.622;25.386;2023-05-16T09:45:58;96931.03;;;24.26;50.19
9439;BME280;5176;42.622;25.386;2023-05-16T09:48:25;96927.03;;;24.37;49.67
9439;BME280;5176;42.622;25.386;2023-05-16T09:50:53;96937.69;;;24.52;48.74
9439;BME280;5176;42.622;25.386;2023-05-16T09:53:25;96924.53;;;24.57;48.62
9439;BME280;5176;42.622;25.386;2023-05-16T09:56:02;96934.13;;;24.44;46.85
9439;BME280;5176;42.622;25.386;2023-05-16T09:58:30;96929.84;;;24.50;48.80
9439;BME280;5176;42.622;25.386;2023-05-16T10:00:59;96925.16;;;24.59;48.34
9439;BME280;5176;42.622;25.386;2023-05-16T10:03:28;96916.97;;;24.88;49.33
9439;BME280;5176;42.622;25.386;2023-05-16T10:05:55;96911.66;;;24.95;48.80
9439;BME280;5176;42.622;25.386;2023-05-16T10:08:24;96911.97;;;24.85;48.50
9439;BME280;5176;42.622;25.386;2023-05-16T10:10:54;96912.38;;;24.82;48.73
9439;BME280;5176;42.622;25.386;2023-05-16T10:13:27;96900.59;;;25.05;50.25
9439;BME280;5176;42.622;25.386;2023-05-16T10:15:56;96877.31;;;25.12;49.22
9439;BME280;5176;42.622;25.386;2023-05-16T10:18:28;96882.91;;;25.17;47.97
9439;BME280;5176;42.622;25.386;2023-05-16T10:20:59;96874.44;;;24.85;47.38
9439;BME280;5176;42.622;25.386;2023-05-16T10:23:29;96878.63;;;24.66;46.86
9439;BME280;5176;42.622;25.386;2023-05-16T10:25:59;96868.47;;;24.55;46.92
9439;BME280;5176;42.622;25.386;2023-05-16T10:28:28;96869.06;;;24.51;44.75
9439;BME280;5176;42.622;25.386;2023-05-16T10:30:56;96865.03;;;24.40;46.93
9439;BME280;5176;42.622;25.386;2023-05-16T10:33:24;96868.66;;;24.32;47.14
9439;BME280;5176;42.622;25.386;2023-05-16T10:35:52;96869.69;;;24.31;47.39
9439;BME280;5176;42.622;25.386;2023-05-16T10:38:20;96863.19;;;24.40;46.49
9439;BME280;5176;42.622;25.386;2023-05-16T10:40:49;96855.53;;;24.37;46.64
9439;BME280;5176;42.622;25.386;2023-05-16T10:43:24;96843.75;;;24.60;46.77
9439;BME280;5176;42.622;25.386;2023-05-16T10:45:58;96835.72;;;24.60;45.85
9439;BME280;5176;42.622;25.386;2023-05-16T10:48:29;96831.59;;;24.92;46.62
9439;BME280;5176;42.622;25.386;2023-05-16T10:50:57;96821.94;;;24.97;46.22
9439;BME280;5176;42.622;25.386;2023-05-16T10:53:29;96829.38;;;25.02;45.75
9439;BME280;5176;42.622;25.386;2023-05-16T10:56:08;96826.97;;;25.14;45.81
9439;BME280;5176;42.622;25.386;2023-05-16T10:58:43;96820.03;;;25.26;45.19
9439;BME280;5176;42.622;25.386;2023-05-16T11:01:17;96819.69;;;25.42;44.84
9439;BME280;5176;42.622;25.386;2023-05-16T11:04:18;96812.81;;;25.26;43.80
9439;BME280;5176;42.622;25.386;2023-05-16T11:06:56;96814.25;;;24.88;44.46
9439;BME280;5176;42.622;25.386;2023-05-16T11:09:25;96819.69;;;24.66;45.75
9439;BME280;5176;42.622;25.386;2023-05-16T11:12:00;96800.69;;;24.33;46.78
9439;BME280;5176;42.622;25.386;2023-05-16T11:14:35;96802.59;;;24.39;47.81
9439;BME280;5176;42.622;25.386;2023-05-16T11:17:07;96799.50;;;24.36;48.33
9439;BME280;5176;42.622;25.386;2023-05-16T11:19:39;96792.56;;;24.27;48.11
9439;BME280;5176;42.622;25.386;2023-05-16T11:24:55;96787.34;;;23.90;49.22
9439;BME280;5176;42.622;25.386;2023-05-16T11:27:25;96786.66;;;23.82;49.80
9439;BME280;5176;42.622;25.386;2023-05-16T11:29:54;96796.78;;;23.86;50.39
9439;BME280;5176;42.622;25.386;2023-05-16T11:32:23;96792.84;;;23.82;49.60
9439;BME280;5176;42.622;25.386;2023-05-16T11:34:51;96791.81;;;23.83;49.06
9439;BME280;5176;42.622;25.386;2023-05-16T11:37:19;96794.50;;;23.83;50.08
9439;BME280;5176;42.622;25.386;2023-05-16T11:39:47;96790.03;;;23.90;51.53
9439;BME280;5176;42.622;25.386;2023-05-16T11:42:15;96797.44;;;23.88;51.45
9439;BME280;5176;42.622;25.386;2023-05-16T11:44:43;96795.19;;;23.92;50.75
9439;BME280;5176;42.622;25.386;2023-05-16T11:47:10;96792.50;;;23.92;51.79
9439;BME280;5176;42.622;25.386;2023-05-16T11:49:39;96788.63;;;23.95;52.54
9439;BME280;5176;42.622;25.386;2023-05-16T11:52:08;96777.22;;;23.86;51.21
9439;BME280;5176;42.622;25.386;2023-05-16T11:54:36;96794.81;;;23.95;52.01
9439;BME280;5176;42.622;25.386;2023-05-16T11:57:04;96797.28;;;23.97;51.71
9439;BME280;5176;42.622;25.386;2023-05-16T11:59:31;96786.66;;;23.82;51.35
9439;BME280;5176;42.622;25.386;2023-05-16T12:02:02;96797.03;;;23.91;50.95
9439;BME280;5176;42.622;25.386;2023-05-16T12:04:30;96787.41;;;23.97;51.18
9439;BME280;5176;42.622;25.386;2023-05-16T12:07:01;96784.16;;;24.02;50.29
9439;BME280;5176;42.622;25.386;2023-05-16T12:09:30;96761.47;;;23.98;50.46
9439;BME280;5176;42.622;25.386;2023-05-16T12:11:57;96765.38;;;23.95;49.81
9439;BME280;5176;42.622;25.386;2023-05-16T12:14:25;96763.06;;;23.92;51.06
9439;BME280;5176;42.622;25.386;2023-05-16T12:16:53;96754.50;;;24.03;51.60
9439;BME280;5176;42.622;25.386;2023-05-16T12:19:20;96756.00;;;24.12;50.02
9439;BME280;5176;42.622;25.386;2023-05-16T12:21:51;96763.06;;;24.20;49.15
9439;BME280;5176;42.622;25.386;2023-05-16T12:24:28;96771.50;;;24.17;48.20
9439;BME280;5176;42.622;25.386;2023-05-16T12:26:56;96777.78;;;24.03;47.50
9439;BME280;5176;42.622;25.386;2023-05-16T12:29:24;96777.72;;;23.96;48.18
9439;BME280;5176;42.622;25.386;2023-05-16T12:31:52;96774.44;;;24.01;48.20
9439;BME280;5176;42.622;25.386;2023-05-16T12:34:20;96773.47;;;24.02;47.76
9439;BME280;5176;42.622;25.386;2023-05-16T12:36:50;96790.97;;;24.04;47.95
9439;BME280;5176;42.622;25.386;2023-05-16T12:39:20;96797.66;;;23.93;48.06
9439;BME280;5176;42.622;25.386;2023-05-16T12:41:49;96792.13;;;23.95;48.61
9439;BME280;5176;42.622;25.386;2023-05-16T12:44:17;96796.53;;;24.03;48.77
9439;BME280;5176;42.622;25.386;2023-05-16T12:46:45;96787.78;;;24.15;48.22
9439;BME280;5176;42.622;25.386;2023-05-16T12:49:14;96799.50;;;24.14;47.94
9439;BME280;5176;42.622;25.386;2023-05-16T12:51:48;96795.16;;;24.13;48.57
9439;BME280;5176;42.622;25.386;2023-05-16T12:54:15;96808.75;;;24.12;48.33
9439;BME280;5176;42.622;25.386;2023-05-16T12:56:44;96803.06;;;24.22;49.04
9439;BME280;5176;42.622;25.386;2023-05-16T12:59:12;96806.22;;;24.32;48.28
9439;BME280;5176;42.622;25.386;2023-05-16T13:01:40;96792.22;;;24.30;48.38
9439;BME280;5176;42.622;25.386;2023-05-16T13:04:09;96803.50;;;24.25;48.68
9439;BME280;5176;42.622;25.386;2023-05-16T13:06:41;96790.78;;;24.06;49.19
9439;BME280;5176;42.622;25.386;2023-05-16T13:09:08;96793.44;;;24.06;49.16
9439;BME280;5176;42.622;25.386;2023-05-16T13:11:37;96795.03;;;24.00;49.65
9439;BME280;5176;42.622;25.386;2023-05-16T13:14:06;96787.06;;;24.07;49.78
9439;BME280;5176;42.622;25.386;2023-05-16T13:16:33;96793.91;;;24.09;50.47